sensor_id;sensor_type;location;lat;lon;timestamp;P1;durP1;ratioP1;P2;durP2;ratioP2
146;SDS011;45999;48.808;9.182;2022-09-01T00:01:31;20.33;;;18.43;;
146;SDS011;45999;48.808;9.182;2022-09-01T00:03:58;20.40;;;18.37;;
146;SDS011;45999;48.808;9.182;2022-09-01T00:06:28;20.27;;;18.43;;
146;SDS011;45999;48.808;9.182;2022-09-01T00:08:57;20.13;;;18.33;;
146;SDS011;45999;48.808;9.182;2022-09-01T00:11:25;20.80;;;18.63;;
146;SDS011;45999;48.808;9.182;2022-09-01T00:13:54;20.63;;;18.60;;
146;SDS011;45999;48.808;9.182;2022-09-01T00:16:21;20.43;;;18.47;;
146;SDS011;45999;48.808;9.182;2022-09-01T00:18:49;20.80;;;18.73;;
146;SDS011;45999;48.808;9.182;2022-09-01T00:21:18;21.43;;;19.33;;
146;SDS011;45999;48.808;9.182;2022-09-01T00:23:53;21.17;;;19.23;;
146;SDS011;45999;48.808;9.182;2022-09-01T00:26:19;20.40;;;18.57;;
146;SDS011;45999;48.808;9.182;2022-09-01T00:28:46;20.63;;;18.43;;
146;SDS011;45999;48.808;9.182;2022-09-01T00:31:12;22.07;;;19.77;;
146;SDS011;45999;48.808;9.182;2022-09-01T00:33:40;21.07;;;18.87;;
146;SDS011;45999;48.808;9.182;2022-09-01T00:36:07;21.13;;;18.93;;
146;SDS011;45999;48.808;9.182;2022-09-01T00:38:34;20.70;;;18.63;;
146;SDS011;45999;48.808;9.182;2022-09-01T00:41:01;21.43;;;18.83;;
146;SDS011;45999;48.808;9.182;2022-09-01T00:43:38;22.00;;;20.03;;
146;SDS011;45999;48.808;9.182;2022-09-01T00:46:10;20.20;;;18.23;;
146;SDS011;45999;48.808;9.182;2022-09-01T00:48:38;19.87;;;18.10;;
146;SDS011;45999;48.808;9.182;2022-09-01T00:51:05;20.33;;;18.17;;
146;SDS011;45999;48.808;9.182;2022-09-01T00:53:33;18.90;;;17.13;;
146;SDS011;45999;48.808;9.182;2022-09-01T00:56:01;20.90;;;18.80;;
146;SDS011;45999;48.808;9.182;2022-09-01T00:58:29;19.77;;;17.87;;
146;SDS011;45999;48.808;9.182;2022-09-01T01:00:57;19.80;;;17.90;;
146;SDS011;45999;48.808;9.182;2022-09-01T01:03:23;20.57;;;18.60;;
146;SDS011;45999;48.808;9.182;2022-09-01T01:05:51;19.80;;;17.90;;
146;SDS011;45999;48.808;9.182;2022-09-01T01:08:23;19.57;;;17.67;;
146;SDS011;45999;48.808;9.182;2022-09-01T01:10:58;19.13;;;17.23;;
146;SDS011;45999;48.808;9.182;2022-09-01T01:13:25;18.00;;;16.40;;
146;SDS011;45999;48.808;9.182;2022-09-01T01:15:56;18.80;;;17.00;;
146;SDS011;45999;48.808;9.182;2022-09-01T01:18:24;18.20;;;16.50;;
146;SDS011;45999;48.808;9.182;2022-09-01T01:21:06;19.27;;;17.27;;
146;SDS011;45999;48.808;9.182;2022-09-01T01:26:54;18.20;;;16.40;;
146;SDS011;45999;48.808;9.182;2022-09-01T01:29:22;18.83;;;16.83;;
146;SDS011;45999;48.808;9.182;2022-09-01T01:31:49;18.27;;;16.53;;
146;SDS011;45999;48.808;9.182;2022-09-01T01:34:18;18.40;;;16.70;;
146;SDS011;45999;48.808;9.182;2022-09-01T01:36:46;17.97;;;16.27;;
146;SDS011;45999;48.808;9.182;2022-09-01T01:39:16;17.63;;;15.83;;
146;SDS011;45999;48.808;9.182;2022-09-01T01:41:45;18.47;;;16.60;;
146;SDS011;45999;48.808;9.182;2022-09-01T01:44:13;16.80;;;15.20;;
146;SDS011;45999;48.808;9.182;2022-09-01T01:46:44;19.40;;;16.30;;
146;SDS011;45999;48.808;9.182;2022-09-01T01:49:15;18.13;;;16.40;;
146;SDS011;45999;48.808;9.182;2022-09-01T01:51:45;19.03;;;15.23;;
146;SDS011;45999;48.808;9.182;2022-09-01T01:54:13;15.53;;;14.23;;
146;SDS011;45999;48.808;9.182;2022-09-01T01:56:40;15.90;;;14.33;;
146;SDS011;45999;48.808;9.182;2022-09-01T01:59:07;15.90;;;14.47;;
146;SDS011;45999;48.808;9.182;2022-09-01T02:01:39;16.27;;;14.30;;
146;SDS011;45999;48.808;9.182;2022-09-01T02:04:08;16.10;;;14.43;;
146;SDS011;45999;48.808;9.182;2022-09-01T02:06:36;16.13;;;14.57;;
146;SDS011;45999;48.808;9.182;2022-09-01T02:09:05;17.57;;;15.70;;
146;SDS011;45999;48.808;9.182;2022-09-01T02:11:32;15.53;;;14.03;;
146;SDS011;45999;48.808;9.182;2022-09-01T02:14:02;17.63;;;15.83;;
146;SDS011;45999;48.808;9.182;2022-09-01T02:16:30;16.53;;;14.93;;
146;SDS011;45999;48.808;9.182;2022-09-01T02:18:57;15.27;;;13.67;;
146;SDS011;45999;48.808;9.182;2022-09-01T02:21:25;16.60;;;15.07;;
146;SDS011;45999;48.808;9.182;2022-09-01T02:23:54;16.17;;;14.67;;
146;SDS011;45999;48.808;9.182;2022-09-01T02:26:28;15.63;;;14.13;;
146;SDS011;45999;48.808;9.182;2022-09-01T02:29:02;15.57;;;14.17;;
146;SDS011;45999;48.808;9.182;2022-09-01T02:31:31;15.00;;;13.53;;
146;SDS011;45999;48.808;9.182;2022-09-01T02:34:03;15.53;;;13.93;;
146;SDS011;45999;48.808;9.182;2022-09-01T02:36:34;14.67;;;13.27;;
146;SDS011;45999;48.808;9.182;2022-09-01T02:39:05;13.70;;;12.50;;
146;SDS011;45999;48.808;9.182;2022-09-01T02:41:31;14.53;;;13.23;;
146;SDS011;45999;48.808;9.182;2022-09-01T02:43:58;14.07;;;12.83;;
146;SDS011;45999;48.808;9.182;2022-09-01T02:46:26;14.27;;;12.97;;
146;SDS011;45999;48.808;9.182;2022-09-01T02:48:53;14.33;;;13.13;;
146;SDS011;45999;48.808;9.182;2022-09-01T02:51:22;14.20;;;13.00;;
146;SDS011;45999;48.808;9.182;2022-09-01T02:53:50;13.93;;;12.67;;
146;SDS011;45999;48.808;9.182;2022-09-01T02:56:18;14.57;;;13.23;;
146;SDS011;45999;48.808;9.182;2022-09-01T02:58:49;13.97;;;12.77;;
146;SDS011;45999;48.808;9.182;2022-09-01T03:01:17;14.63;;;13.20;;
146;SDS011;45999;48.808;9.182;2022-09-01T03:03:49;14.60;;;13.30;;
146;SDS011;45999;48.808;9.182;2022-09-01T03:06:18;16.37;;;14.70;;
146;SDS011;45999;48.808;9.182;2022-09-01T03:08:48;14.93;;;13.53;;
146;SDS011;45999;48.808;9.182;2022-09-01T03:11:16;15.90;;;14.30;;
146;SDS011;45999;48.808;9.182;2022-09-01T03:13:43;16.30;;;14.80;;
146;SDS011;45999;48.808;9.182;2022-09-01T03:16:10;15.37;;;14.07;;
146;SDS011;45999;48.808;9.182;2022-09-01T03:18:37;16.23;;;14.83;;
146;SDS011;45999;48.808;9.182;2022-09-01T03:21:04;17.17;;;15.50;;
146;SDS011;45999;48.808;9.182;2022-09-01T03:23:32;16.73;;;15.27;;
146;SDS011;45999;48.808;9.182;2022-09-01T03:25:59;15.87;;;14.27;;
146;SDS011;45999;48.808;9.182;2022-09-01T03:28:26;16.23;;;14.73;;
146;SDS011;45999;48.808;9.182;2022-09-01T03:30:53;15.47;;;13.87;;
146;SDS011;45999;48.808;9.182;2022-09-01T03:33:21;16.50;;;15.00;;
146;SDS011;45999;48.808;9.182;2022-09-01T03:35:49;16.10;;;14.50;;
146;SDS011;45999;48.808;9.182;2022-09-01T03:38:16;16.47;;;14.83;;
146;SDS011;45999;48.808;9.182;2022-09-01T03:40:47;17.13;;;15.63;;
146;SDS011;45999;48.808;9.182;2022-09-01T03:43:15;16.63;;;14.93;;
146;SDS011;45999;48.808;9.182;2022-09-01T03:45:43;16.70;;;15.00;;
146;SDS011;45999;48.808;9.182;2022-09-01T03:48:11;15.80;;;14.30;;
146;SDS011;45999;48.808;9.182;2022-09-01T03:50:41;17.57;;;15.80;;
146;SDS011;45999;48.808;9.182;2022-09-01T03:53:12;16.47;;;14.97;;
146;SDS011;45999;48.808;9.182;2022-09-01T03:55:42;16.77;;;15.13;;
146;SDS011;45999;48.808;9.182;2022-09-01T03:58:11;17.37;;;15.83;;
146;SDS011;45999;48.808;9.182;2022-09-01T04:00:40;17.33;;;15.67;;
146;SDS011;45999;48.808;9.182;2022-09-01T04:03:09;17.03;;;15.33;;
146;SDS011;45999;48.808;9.182;2022-09-01T04:05:37;17.33;;;15.83;;
146;SDS011;45999;48.808;9.182;2022-09-01T04:08:07;17.40;;;15.83;;
146;SDS011;45999;48.808;9.182;2022-09-01T04:10:38;16.73;;;14.93;;
146;SDS011;45999;48.808;9.182;2022-09-01T04:13:18;18.83;;;16.27;;
146;SDS011;45999;48.808;9.182;2022-09-01T04:15:47;17.37;;;15.67;;
146;SDS011;45999;48.808;9.182;2022-09-01T04:18:14;17.37;;;15.63;;
146;SDS011;45999;48.808;9.182;2022-09-01T04:20:44;18.53;;;16.83;;
146;SDS011;45999;48.808;9.182;2022-09-01T04:25:51;16.33;;;14.93;;
146;SDS011;45999;48.808;9.182;2022-09-01T04:28:20;17.70;;;16.10;;
146;SDS011;45999;48.808;9.182;2022-09-01T04:30:51;17.93;;;16.17;;
146;SDS011;45999;48.808;9.182;2022-09-01T04:33:21;17.77;;;16.17;;
146;SDS011;45999;48.808;9.182;2022-09-01T04:35:49;18.33;;;16.50;;
146;SDS011;45999;48.808;9.182;2022-09-01T04:38:21;18.77;;;17.17;;
146;SDS011;45999;48.808;9.182;2022-09-01T04:40:49;17.73;;;16.03;;
146;SDS011;45999;48.808;9.182;2022-09-01T04:43:17;18.00;;;16.20;;
146;SDS011;45999;48.808;9.182;2022-09-01T04:45:44;18.40;;;16.70;;
146;SDS011;45999;48.808;9.182;2022-09-01T04:48:13;18.60;;;16.73;;
146;SDS011;45999;48.808;9.182;2022-09-01T04:50:40;18.77;;;17.07;;
146;SDS011;45999;48.808;9.182;2022-09-01T04:53:06;18.47;;;16.77;;
146;SDS011;45999;48.808;9.182;2022-09-01T04:55:36;18.13;;;16.33;;
146;SDS011;45999;48.808;9.182;2022-09-01T04:58:07;19.27;;;17.37;;
146;SDS011;45999;48.808;9.182;2022-09-01T05:00:38;19.50;;;17.73;;
146;SDS011;45999;48.808;9.182;2022-09-01T05:03:05;19.23;;;17.43;;
146;SDS011;45999;48.808;9.182;2022-09-01T05:05:43;18.70;;;16.87;;
146;SDS011;45999;48.808;9.182;2022-09-01T05:08:15;19.10;;;17.50;;
146;SDS011;45999;48.808;9.182;2022-09-01T05:10:45;19.10;;;17.03;;
146;SDS011;45999;48.808;9.182;2022-09-01T05:13:14;18.77;;;16.97;;
146;SDS011;45999;48.808;9.182;2022-09-01T05:15:43;19.63;;;17.53;;
146;SDS011;45999;48.808;9.182;2022-09-01T05:18:12;19.20;;;17.30;;
146;SDS011;45999;48.808;9.182;2022-09-01T05:20:47;18.27;;;16.40;;
146;SDS011;45999;48.808;9.182;2022-09-01T05:23:15;20.47;;;17.90;;
146;SDS011;45999;48.808;9.182;2022-09-01T05:25:44;19.87;;;17.80;;
146;SDS011;45999;48.808;9.182;2022-09-01T05:28:13;20.77;;;17.63;;
146;SDS011;45999;48.808;9.182;2022-09-01T05:30:42;19.47;;;17.60;;
146;SDS011;45999;48.808;9.182;2022-09-01T05:33:12;19.43;;;17.73;;
146;SDS011;45999;48.808;9.182;2022-09-01T05:35:41;19.27;;;17.57;;
146;SDS011;45999;48.808;9.182;2022-09-01T05:38:17;18.17;;;16.47;;
146;SDS011;45999;48.808;9.182;2022-09-01T05:40:43;19.10;;;17.20;;
146;SDS011;45999;48.808;9.182;2022-09-01T05:43:11;18.60;;;16.90;;
146;SDS011;45999;48.808;9.182;2022-09-01T05:45:39;19.37;;;17.53;;
146;SDS011;45999;48.808;9.182;2022-09-01T05:48:10;18.33;;;16.67;;
146;SDS011;45999;48.808;9.182;2022-09-01T05:50:44;17.93;;;16.23;;
146;SDS011;45999;48.808;9.182;2022-09-01T05:53:11;19.77;;;17.97;;
146;SDS011;45999;48.808;9.182;2022-09-01T05:55:44;20.30;;;18.40;;
146;SDS011;45999;48.808;9.182;2022-09-01T05:58:13;20.30;;;18.40;;
146;SDS011;45999;48.808;9.182;2022-09-01T06:00:41;20.53;;;18.53;;
146;SDS011;45999;48.808;9.182;2022-09-01T06:03:12;20.40;;;18.43;;
146;SDS011;45999;48.808;9.182;2022-09-01T06:05:40;22.60;;;19.30;;
146;SDS011;45999;48.808;9.182;2022-09-01T06:08:06;21.50;;;19.40;;
146;SDS011;45999;48.808;9.182;2022-09-01T06:10:37;19.47;;;17.63;;
146;SDS011;45999;48.808;9.182;2022-09-01T06:13:06;20.80;;;18.90;;
146;SDS011;45999;48.808;9.182;2022-09-01T06:15:34;19.90;;;18.03;;
146;SDS011;45999;48.808;9.182;2022-09-01T06:18:04;20.63;;;18.77;;
146;SDS011;45999;48.808;9.182;2022-09-01T06:20:32;19.40;;;17.57;;
146;SDS011;45999;48.808;9.182;2022-09-01T06:22:59;20.50;;;18.60;;
146;SDS011;45999;48.808;9.182;2022-09-01T06:25:26;19.97;;;17.97;;
146;SDS011;45999;48.808;9.182;2022-09-01T06:27:54;18.13;;;16.43;;
146;SDS011;45999;48.808;9.182;2022-09-01T06:30:21;18.90;;;16.97;;
146;SDS011;45999;48.808;9.182;2022-09-01T06:32:51;18.87;;;16.93;;
146;SDS011;45999;48.808;9.182;2022-09-01T06:35:19;18.73;;;17.03;;
146;SDS011;45999;48.808;9.182;2022-09-01T06:37:49;20.47;;;18.57;;
146;SDS011;45999;48.808;9.182;2022-09-01T06:40:15;18.37;;;16.50;;
146;SDS011;45999;48.808;9.182;2022-09-01T06:42:43;17.97;;;16.37;;
146;SDS011;45999;48.808;9.182;2022-09-01T06:45:13;18.37;;;16.57;;
146;SDS011;45999;48.808;9.182;2022-09-01T06:47:41;16.87;;;15.47;;
146;SDS011;45999;48.808;9.182;2022-09-01T06:50:13;18.03;;;16.33;;
146;SDS011;45999;48.808;9.182;2022-09-01T06:52:41;18.87;;;17.07;;
146;SDS011;45999;48.808;9.182;2022-09-01T06:55:12;17.93;;;16.33;;
146;SDS011;45999;48.808;9.182;2022-09-01T06:57:40;19.40;;;17.50;;
146;SDS011;45999;48.808;9.182;2022-09-01T07:00:13;18.57;;;16.87;;
146;SDS011;45999;48.808;9.182;2022-09-01T07:02:45;17.90;;;16.10;;
146;SDS011;45999;48.808;9.182;2022-09-01T07:05:14;23.37;;;20.57;;
146;SDS011;45999;48.808;9.182;2022-09-01T07:07:52;17.80;;;16.20;;
146;SDS011;45999;48.808;9.182;2022-09-01T07:10:20;16.10;;;14.70;;
146;SDS011;45999;48.808;9.182;2022-09-01T07:12:49;16.90;;;15.33;;
146;SDS011;45999;48.808;9.182;2022-09-01T07:15:20;16.63;;;14.93;;
146;SDS011;45999;48.808;9.182;2022-09-01T07:17:48;16.20;;;14.80;;
146;SDS011;45999;48.808;9.182;2022-09-01T07:20:19;17.03;;;15.53;;
146;SDS011;45999;48.808;9.182;2022-09-01T07:22:48;16.97;;;14.63;;
146;SDS011;45999;48.808;9.182;2022-09-01T07:25:16;15.43;;;14.03;;
146;SDS011;45999;48.808;9.182;2022-09-01T07:27:44;15.53;;;14.23;;
146;SDS011;45999;48.808;9.182;2022-09-01T07:30:13;14.80;;;13.50;;
146;SDS011;45999;48.808;9.182;2022-09-01T07:32:42;27.33;;;24.70;;
146;SDS011;45999;48.808;9.182;2022-09-01T07:35:09;13.67;;;12.33;;
146;SDS011;45999;48.808;9.182;2022-09-01T07:37:36;15.67;;;14.27;;
146;SDS011;45999;48.808;9.182;2022-09-01T07:40:04;18.00;;;16.30;;
146;SDS011;45999;48.808;9.182;2022-09-01T07:42:32;14.17;;;13.07;;
146;SDS011;45999;48.808;9.182;2022-09-01T07:44:59;15.00;;;13.60;;
146;SDS011;45999;48.808;9.182;2022-09-01T07:47:30;14.60;;;13.20;;
146;SDS011;45999;48.808;9.182;2022-09-01T07:50:00;13.33;;;12.17;;
146;SDS011;45999;48.808;9.182;2022-09-01T07:52:35;12.53;;;11.47;;
146;SDS011;45999;48.808;9.182;2022-09-01T07:55:10;12.03;;;11.03;;
146;SDS011;45999;48.808;9.182;2022-09-01T07:57:39;13.30;;;12.17;;
146;SDS011;45999;48.808;9.182;2022-09-01T08:00:10;11.13;;;10.23;;
146;SDS011;45999;48.808;9.182;2022-09-01T08:02:41;11.90;;;10.80;;
146;SDS011;45999;48.808;9.182;2022-09-01T08:05:09;11.80;;;10.80;;
146;SDS011;45999;48.808;9.182;2022-09-01T08:07:38;12.23;;;11.13;;
146;SDS011;45999;48.808;9.182;2022-09-01T08:10:06;12.03;;;11.03;;
146;SDS011;45999;48.808;9.182;2022-09-01T08:12:33;13.10;;;11.97;;
146;SDS011;45999;48.808;9.182;2022-09-01T08:15:00;12.43;;;11.40;;
146;SDS011;45999;48.808;9.182;2022-09-01T08:17:28;13.00;;;11.77;;
146;SDS011;45999;48.808;9.182;2022-09-01T08:19:55;12.27;;;11.27;;
146;SDS011;45999;48.808;9.182;2022-09-01T08:22:21;12.07;;;10.97;;
146;SDS011;45999;48.808;9.182;2022-09-01T08:24:50;11.37;;;10.37;;
146;SDS011;45999;48.808;9.182;2022-09-01T08:27:17;12.33;;;10.20;;
146;SDS011;45999;48.808;9.182;2022-09-01T08:29:44;9.53;;;8.73;;
146;SDS011;45999;48.808;9.182;2022-09-01T08:32:11;8.73;;;7.93;;
146;SDS011;45999;48.808;9.182;2022-09-01T08:34:37;10.00;;;8.50;;
146;SDS011;45999;48.808;9.182;2022-09-01T08:37:04;8.90;;;8.20;;
146;SDS011;45999;48.808;9.182;2022-09-01T08:39:31;8.70;;;7.90;;
146;SDS011;45999;48.808;9.182;2022-09-01T08:47:37;7.77;;;7.10;;
146;SDS011;45999;48.808;9.182;2022-09-01T08:50:03;7.63;;;6.93;;
146;SDS011;45999;48.808;9.182;2022-09-01T08:52:47;7.70;;;7.10;;
146;SDS011;45999;48.808;9.182;2022-09-01T08:55:31;6.50;;;6.00;;
146;SDS011;45999;48.808;9.182;2022-09-01T08:58:02;6.20;;;5.70;;
146;SDS011;45999;48.808;9.182;2022-09-01T09:00:32;7.13;;;6.47;;
146;SDS011;45999;48.808;9.182;2022-09-01T09:14:19;5.40;;;4.97;;
146;SDS011;45999;48.808;9.182;2022-09-01T09:16:54;27.33;;;24.50;;
146;SDS011;45999;48.808;9.182;2022-09-01T09:21:54;7.83;;;6.57;;
146;SDS011;45999;48.808;9.182;2022-09-01T09:24:36;6.97;;;6.37;;
146;SDS011;45999;48.808;9.182;2022-09-01T09:27:16;6.73;;;6.00;;
146;SDS011;45999;48.808;9.182;2022-09-01T09:29:53;6.13;;;5.63;;
146;SDS011;45999;48.808;9.182;2022-09-01T09:32:23;6.17;;;5.67;;
146;SDS011;45999;48.808;9.182;2022-09-01T09:35:29;6.93;;;6.10;;
146;SDS011;45999;48.808;9.182;2022-09-01T09:37:55;6.97;;;6.37;;
146;SDS011;45999;48.808;9.182;2022-09-01T09:43:54;6.17;;;5.67;;
146;SDS011;45999;48.808;9.182;2022-09-01T09:51:45;8.53;;;7.83;;
146;SDS011;45999;48.808;9.182;2022-09-01T09:54:16;5.87;;;5.43;;
146;SDS011;45999;48.808;9.182;2022-09-01T09:56:48;7.20;;;6.60;;
146;SDS011;45999;48.808;9.182;2022-09-01T10:01:59;6.10;;;5.57;;
146;SDS011;45999;48.808;9.182;2022-09-01T10:05:00;7.33;;;6.73;;
146;SDS011;45999;48.808;9.182;2022-09-01T10:07:46;6.27;;;5.63;;
146;SDS011;45999;48.808;9.182;2022-09-01T10:10:49;15.40;;;13.87;;
146;SDS011;45999;48.808;9.182;2022-09-01T10:13:13;13.57;;;12.17;;
146;SDS011;45999;48.808;9.182;2022-09-01T10:15:48;9.23;;;8.07;;
146;SDS011;45999;48.808;9.182;2022-09-01T10:18:20;6.13;;;5.13;;
146;SDS011;45999;48.808;9.182;2022-09-01T10:20:59;5.57;;;5.10;;
146;SDS011;45999;48.808;9.182;2022-09-01T10:23:29;6.37;;;5.80;;
146;SDS011;45999;48.808;9.182;2022-09-01T10:26:05;5.87;;;5.37;;
146;SDS011;45999;48.808;9.182;2022-09-01T10:28:37;6.43;;;5.37;;
146;SDS011;45999;48.808;9.182;2022-09-01T10:31:11;4.93;;;4.53;;
146;SDS011;45999;48.808;9.182;2022-09-01T10:33:40;5.37;;;4.97;;
146;SDS011;45999;48.808;9.182;2022-09-01T10:36:06;10.43;;;8.37;;
146;SDS011;45999;48.808;9.182;2022-09-01T10:38:33;7.57;;;5.17;;
146;SDS011;45999;48.808;9.182;2022-09-01T10:41:00;7.33;;;6.60;;
146;SDS011;45999;48.808;9.182;2022-09-01T10:48:48;4.23;;;3.93;;
146;SDS011;45999;48.808;9.182;2022-09-01T10:53:43;9.83;;;8.87;;
146;SDS011;45999;48.808;9.182;2022-09-01T11:04:15;5.17;;;4.67;;
146;SDS011;45999;48.808;9.182;2022-09-01T11:09:37;11.63;;;10.47;;
146;SDS011;45999;48.808;9.182;2022-09-01T11:14:51;4.13;;;3.83;;
146;SDS011;45999;48.808;9.182;2022-09-01T11:20:27;4.57;;;4.27;;
146;SDS011;45999;48.808;9.182;2022-09-01T11:23:01;31.60;;;28.50;;
146;SDS011;45999;48.808;9.182;2022-09-01T11:25:35;21.23;;;19.30;;
146;SDS011;45999;48.808;9.182;2022-09-01T11:28:04;5.20;;;4.70;;
146;SDS011;45999;48.808;9.182;2022-09-01T11:30:44;5.47;;;4.20;;
146;SDS011;45999;48.808;9.182;2022-09-01T11:36:05;4.63;;;4.20;;
146;SDS011;45999;48.808;9.182;2022-09-01T11:44:35;3.50;;;3.30;;
146;SDS011;45999;48.808;9.182;2022-09-01T11:47:12;3.40;;;3.10;;
146;SDS011;45999;48.808;9.182;2022-09-01T11:50:02;9.43;;;8.63;;
146;SDS011;45999;48.808;9.182;2022-09-01T11:52:41;3.83;;;3.47;;
146;SDS011;45999;48.808;9.182;2022-09-01T11:55:17;53.83;;;48.40;;
146;SDS011;45999;48.808;9.182;2022-09-01T11:57:54;4.43;;;4.03;;
146;SDS011;45999;48.808;9.182;2022-09-01T12:00:29;5.07;;;4.63;;
146;SDS011;45999;48.808;9.182;2022-09-01T12:02:58;3.80;;;3.50;;
146;SDS011;45999;48.808;9.182;2022-09-01T12:05:29;3.97;;;3.57;;
146;SDS011;45999;48.808;9.182;2022-09-01T12:08:03;4.40;;;4.00;;
146;SDS011;45999;48.808;9.182;2022-09-01T12:10:38;4.70;;;4.30;;
146;SDS011;45999;48.808;9.182;2022-09-01T12:13:09;3.67;;;3.47;;
146;SDS011;45999;48.808;9.182;2022-09-01T12:15:38;4.97;;;4.47;;
146;SDS011;45999;48.808;9.182;2022-09-01T12:18:08;4.93;;;4.53;;
146;SDS011;45999;48.808;9.182;2022-09-01T12:20:38;3.33;;;3.13;;
146;SDS011;45999;48.808;9.182;2022-09-01T12:23:18;4.43;;;3.50;;
146;SDS011;45999;48.808;9.182;2022-09-01T12:25:54;3.90;;;3.50;;
146;SDS011;45999;48.808;9.182;2022-09-01T12:28:24;4.17;;;3.87;;
146;SDS011;45999;48.808;9.182;2022-09-01T12:30:55;3.90;;;3.67;;
146;SDS011;45999;48.808;9.182;2022-09-01T12:33:23;3.20;;;2.90;;
146;SDS011;45999;48.808;9.182;2022-09-01T12:35:51;3.97;;;3.53;;
146;SDS011;45999;48.808;9.182;2022-09-01T12:40:44;5.13;;;3.30;;
146;SDS011;45999;48.808;9.182;2022-09-01T12:43:26;3.63;;;3.30;;
146;SDS011;45999;48.808;9.182;2022-09-01T12:45:57;2.80;;;2.60;;
146;SDS011;45999;48.808;9.182;2022-09-01T12:48:26;2.73;;;2.30;;
146;SDS011;45999;48.808;9.182;2022-09-01T12:50:58;3.00;;;2.73;;
146;SDS011;45999;48.808;9.182;2022-09-01T12:53:29;2.93;;;2.60;;
146;SDS011;45999;48.808;9.182;2022-09-01T12:56:02;3.00;;;2.80;;
146;SDS011;45999;48.808;9.182;2022-09-01T12:58:32;2.97;;;2.77;;
146;SDS011;45999;48.808;9.182;2022-09-01T13:01:00;3.00;;;2.60;;
146;SDS011;45999;48.808;9.182;2022-09-01T13:03:32;4.80;;;3.27;;
146;SDS011;45999;48.808;9.182;2022-09-01T13:06:00;2.83;;;2.63;;
146;SDS011;45999;48.808;9.182;2022-09-01T13:08:29;3.10;;;2.80;;
146;SDS011;45999;48.808;9.182;2022-09-01T13:11:02;9.10;;;7.97;;
146;SDS011;45999;48.808;9.182;2022-09-01T13:13:33;2.93;;;2.73;;
146;SDS011;45999;48.808;9.182;2022-09-01T13:16:01;20.10;;;18.20;;
146;SDS011;45999;48.808;9.182;2022-09-01T13:18:32;3.80;;;3.50;;
146;SDS011;45999;48.808;9.182;2022-09-01T13:20:59;6.17;;;5.67;;
146;SDS011;45999;48.808;9.182;2022-09-01T13:23:25;3.87;;;3.53;;
146;SDS011;45999;48.808;9.182;2022-09-01T13:25:52;12.00;;;10.93;;
146;SDS011;45999;48.808;9.182;2022-09-01T13:28:19;5.57;;;5.07;;
146;SDS011;45999;48.808;9.182;2022-09-01T13:30:49;7.60;;;7.00;;
146;SDS011;45999;48.808;9.182;2022-09-01T13:33:20;3.90;;;3.57;;
146;SDS011;45999;48.808;9.182;2022-09-01T13:35:47;4.60;;;4.20;;
146;SDS011;45999;48.808;9.182;2022-09-01T13:38:14;5.53;;;5.10;;
146;SDS011;45999;48.808;9.182;2022-09-01T13:40:41;3.57;;;3.27;;
146;SDS011;45999;48.808;9.182;2022-09-01T13:43:09;3.77;;;3.00;;
146;SDS011;45999;48.808;9.182;2022-09-01T13:45:35;3.57;;;3.27;;
146;SDS011;45999;48.808;9.182;2022-09-01T13:48:02;2.90;;;2.70;;
146;SDS011;45999;48.808;9.182;2022-09-01T13:50:28;4.20;;;3.20;;
146;SDS011;45999;48.808;9.182;2022-09-01T13:52:55;4.80;;;2.90;;
146;SDS011;45999;48.808;9.182;2022-09-01T13:55:24;3.30;;;3.10;;
146;SDS011;45999;48.808;9.182;2022-09-01T13:57:52;3.38;;;3.17;;
146;SDS011;45999;48.808;9.182;2022-09-01T14:00:20;3.28;;;2.97;;
146;SDS011;45999;48.808;9.182;2022-09-01T14:02:50;3.30;;;3.10;;
146;SDS011;45999;48.808;9.182;2022-09-01T14:05:19;3.10;;;2.80;;
146;SDS011;45999;48.808;9.182;2022-09-01T14:07:50;3.50;;;3.20;;
146;SDS011;45999;48.808;9.182;2022-09-01T14:10:17;2.80;;;2.60;;
146;SDS011;45999;48.808;9.182;2022-09-01T14:12:45;3.60;;;3.05;;
146;SDS011;45999;48.808;9.182;2022-09-01T14:15:12;3.00;;;2.80;;
146;SDS011;45999;48.808;9.182;2022-09-01T14:17:41;2.80;;;2.60;;
146;SDS011;45999;48.808;9.182;2022-09-01T14:20:09;16.88;;;15.25;;
146;SDS011;45999;48.808;9.182;2022-09-01T14:22:40;5.10;;;4.68;;
146;SDS011;45999;48.808;9.182;2022-09-01T14:25:07;3.47;;;3.17;;
146;SDS011;45999;48.808;9.182;2022-09-01T14:27:34;19.67;;;17.77;;
146;SDS011;45999;48.808;9.182;2022-09-01T14:30:01;3.88;;;3.58;;
146;SDS011;45999;48.808;9.182;2022-09-01T14:32:29;6.55;;;5.97;;
146;SDS011;45999;48.808;9.182;2022-09-01T14:34:56;6.55;;;6.00;;
146;SDS011;45999;48.808;9.182;2022-09-01T14:37:23;5.18;;;4.78;;
146;SDS011;45999;48.808;9.182;2022-09-01T14:39:50;4.28;;;3.97;;
146;SDS011;45999;48.808;9.182;2022-09-01T14:42:20;3.17;;;2.90;;
146;SDS011;45999;48.808;9.182;2022-09-01T14:44:49;2.75;;;2.55;;
146;SDS011;45999;48.808;9.182;2022-09-01T14:47:17;5.95;;;4.40;;
146;SDS011;45999;48.808;9.182;2022-09-01T14:49:43;8.60;;;7.80;;
146;SDS011;45999;48.808;9.182;2022-09-01T14:52:10;3.03;;;2.83;;
146;SDS011;45999;48.808;9.182;2022-09-01T14:54:38;3.53;;;2.93;;
146;SDS011;45999;48.808;9.182;2022-09-01T14:57:07;4.25;;;2.72;;
146;SDS011;45999;48.808;9.182;2022-09-01T14:59:34;7.07;;;6.47;;
146;SDS011;45999;48.808;9.182;2022-09-01T15:02:01;4.03;;;3.63;;
146;SDS011;45999;48.808;9.182;2022-09-01T15:04:27;2.83;;;2.47;;
146;SDS011;45999;48.808;9.182;2022-09-01T15:06:54;5.35;;;4.95;;
146;SDS011;45999;48.808;9.182;2022-09-01T15:09:21;2.60;;;2.40;;
146;SDS011;45999;48.808;9.182;2022-09-01T15:11:48;3.92;;;3.28;;
146;SDS011;45999;48.808;9.182;2022-09-01T15:14:14;6.78;;;6.05;;
146;SDS011;45999;48.808;9.182;2022-09-01T15:16:40;8.75;;;7.90;;
146;SDS011;45999;48.808;9.182;2022-09-01T15:19:07;18.63;;;16.77;;
146;SDS011;45999;48.808;9.182;2022-09-01T15:21:36;31.55;;;28.45;;
146;SDS011;45999;48.808;9.182;2022-09-01T15:24:04;3.10;;;2.63;;
146;SDS011;45999;48.808;9.182;2022-09-01T15:26:34;12.43;;;11.30;;
146;SDS011;45999;48.808;9.182;2022-09-01T15:29:02;3.03;;;2.83;;
146;SDS011;45999;48.808;9.182;2022-09-01T15:31:29;4.95;;;4.55;;
146;SDS011;45999;48.808;9.182;2022-09-01T15:33:58;3.60;;;3.25;;
146;SDS011;45999;48.808;9.182;2022-09-01T15:36:26;6.70;;;5.53;;
146;SDS011;45999;48.808;9.182;2022-09-01T15:38:54;2.72;;;2.53;;
146;SDS011;45999;48.808;9.182;2022-09-01T15:41:25;9.05;;;8.18;;
146;SDS011;45999;48.808;9.182;2022-09-01T15:43:53;3.13;;;2.75;;
146;SDS011;45999;48.808;9.182;2022-09-01T15:46:20;8.35;;;6.78;;
146;SDS011;45999;48.808;9.182;2022-09-01T15:48:46;2.63;;;2.35;;
146;SDS011;45999;48.808;9.182;2022-09-01T15:53:55;6.32;;;5.63;;
146;SDS011;45999;48.808;9.182;2022-09-01T15:56:24;3.20;;;2.53;;
146;SDS011;45999;48.808;9.182;2022-09-01T15:58:51;4.72;;;4.25;;
146;SDS011;45999;48.808;9.182;2022-09-01T16:01:18;2.88;;;2.60;;
146;SDS011;45999;48.808;9.182;2022-09-01T16:03:46;3.08;;;2.53;;
146;SDS011;45999;48.808;9.182;2022-09-01T16:06:13;2.53;;;2.33;;
146;SDS011;45999;48.808;9.182;2022-09-01T16:08:39;3.10;;;2.90;;
146;SDS011;45999;48.808;9.182;2022-09-01T16:11:09;2.50;;;2.30;;
146;SDS011;45999;48.808;9.182;2022-09-01T16:13:40;2.55;;;2.30;;
146;SDS011;45999;48.808;9.182;2022-09-01T16:18:45;4.50;;;2.50;;
146;SDS011;45999;48.808;9.182;2022-09-01T16:23:52;2.67;;;2.47;;
146;SDS011;45999;48.808;9.182;2022-09-01T16:26:20;3.43;;;2.60;;
146;SDS011;45999;48.808;9.182;2022-09-01T16:28:54;2.97;;;2.30;;
146;SDS011;45999;48.808;9.182;2022-09-01T16:31:26;2.87;;;2.67;;
146;SDS011;45999;48.808;9.182;2022-09-01T16:33:56;2.43;;;2.23;;